KLAXKAVX

Guest
Details From KLAX - Los Angeles Intl
To KAVX - Catalina
Flight Number -
Tags generated
Created
Modified
Stats Distance 33 nm / 60 km
Max Altitude 4,000 ft / 1,219 m
Waypoints 3
Social Downloads 4
Likes 0
Share VATSIM

Download

Looking for another format? Having issues loading an existing format? Contact us
Advertisement - Login to hide

Notes

Basic altitude profile: - Ascent Rate: 2500ft/min - Ascent Speed: 300kts - Cruise Altitude: 15ft - Cruise Speed: 420kts - Descent Rate: 1500ft/min - Descent Speed: 250kts Options: - Use NATs: yes - Use PACOTS: yes - Use low airways: yes - Use high airways: no

Route

KLAX LIMBO KAVX

ID Type Via Altitude Latitude Longitude Leg Dist Tot Dist Heading (true) Name
O KLAX APT - 0 ft / 0 m 33.94313˚ -118.40892˚ - 0 nm - Los Angeles Intl
LIMBO FIX - 4,000 ft / 1,219 m 33.75956˚ -118.45020˚ 11 nm 11 nm 191° / 191° -
O KAVX APT - 0 ft / 0 m 33.40466˚ -118.41588˚ 21 nm 32 nm 175° / 175° Catalina

Altitude Profile

Advertisement - Login to hide

KLAX

Details ICAO KLAX (LAX)
Name Los Angeles Intl
Region United States
Timezone America/Los_Angeles (UTC-7.0)
Stats Elevation 126 ft / 38 m (AMSL)
Location 33.943130° -118.408917°
Runways 4
Magnetic Variation 11.968° E

METAR

KLAX 240553Z 27008KT 10SM FEW010 BKN014 16/12 A3004 RMK AO2 SLP169 BKN V SCT T01560122 10183 20156 53021

Decode

TAF

KLAX 240523Z 2406/2512 27007KT P6SM SCT015 FM240700 26006KT P6SM BKN025 FM241200 VRB03KT 6SM -DZ BR BKN015 OVC025 FM241700 25008KT P6SM SCT015 OVC025 FM242100 26015KT P6SM BKN035 FM250300 26010KT P6SM OVC025

Decode

Departure Runways

ID Width Length Bearing (true) Bearing (mag) Surface Threshold Offset Overrun Length
06L 151 ft / 46 m 8,907 ft / 2,715 m 82.98° 71.01° Concrete 0 ft / 0 m 0 ft / 0 m
06R 151 ft / 46 m 10,266 ft / 3,129 m 82.95° 70.98° Concrete 331 ft / 101 m 0 ft / 0 m
07L 151 ft / 46 m 12,069 ft / 3,679 m 82.96° 70.99° Concrete 0 ft / 0 m 0 ft / 0 m
07R 200 ft / 61 m 11,081 ft / 3,377 m 82.96° 70.99° Concrete 0 ft / 0 m 397 ft / 121 m
24L 151 ft / 46 m 10,266 ft / 3,129 m 262.97° 251.00° Concrete 0 ft / 0 m 174 ft / 53 m
24R 151 ft / 46 m 8,907 ft / 2,715 m 263.00° 251.03° Concrete 0 ft / 0 m 305 ft / 93 m
25L 200 ft / 61 m 11,081 ft / 3,377 m 262.98° 251.01° Concrete 0 ft / 0 m 1,053 ft / 321 m
25R 151 ft / 46 m 12,069 ft / 3,679 m 262.98° 251.01° Concrete 958 ft / 292 m 154 ft / 47 m

KAVX

Details ICAO KAVX (AVX)
Name Catalina
Region United States
Timezone America/Los_Angeles (UTC-7.0)
Stats Elevation 1,601 ft / 488 m (AMSL)
Location 33.404656° -118.415880°
Runways 1
Magnetic Variation 11.863° E

METAR

KAVX 240620Z AUTO 24005KT 1/2SM FG VV002 11/11 A3004 RMK AO2 T01110111 $

Decode

TAF

Not found

Destination Runways

ID Width Length Bearing (true) Bearing (mag) Surface Threshold Offset Overrun Length
04 59 ft / 18 m 3,127 ft / 953 m 54.93° 43.07° Asphalt 131 ft / 40 m 0 ft / 0 m
22 59 ft / 18 m 3,127 ft / 953 m 234.93° 223.07° Asphalt 62 ft / 19 m 0 ft / 0 m

Popular Alternatives